Time;durP1;ratioP1;P1;durP2;ratioP2;P2;SDS_P1;SDS_P2;PMS_P1;PMS_P2;Temp;Humidity;BMP_temperature;BMP_pressure;BME280_temperature;BME280_humidity;BME280_pressure;Samples;Min_cycle;Max_cycle;Signal;HPM_P1;HPM_P2
2024/03/23 00:01:54;;;;;;;70.78;7.65;;;;;;;;;;4978185;28;20050;-65
2024/03/23 00:05:00;;;;;;;61.15;7.68;;;;;;;;;;4964762;28;20058;-66
2024/03/23 00:08:13;;;;;;;66.35;9.43;;;;;;;;;;4970891;28;20063;-65
2024/03/23 00:11:26;;;;;;;60.40;6.55;;;;;;;;;;4967847;28;20073;-60
2024/03/23 00:14:32;;;;;;;53.35;6.18;;;;;;;;;;4964216;28;20062;-65
2024/03/23 00:17:32;;;;;;;48.70;6.60;;;;;;;;;;4962267;28;20055;-66
2024/03/23 00:20:18;;;;;;;58.22;6.88;;;;;;;;;;4958453;28;20722;-65
2024/03/23 00:23:31;;;;;;;68.95;7.75;;;;;;;;;;4956686;28;20070;-65
2024/03/23 00:26:37;;;;;;;65.03;7.15;;;;;;;;;;4957803;28;20054;-65
2024/03/23 00:29:50;;;;;;;57.80;6.55;;;;;;;;;;4970314;28;20062;-65
2024/03/23 00:32:56;;;;;;;51.88;6.03;;;;;;;;;;4962607;28;20050;-66
2024/03/23 00:36:09;;;;;;;58.95;7.55;;;;;;;;;;4970384;28;20528;-65
2024/03/23 00:39:15;;;;;;;50.58;6.35;;;;;;;;;;4964024;28;20352;-60
2024/03/23 00:42:28;;;;;;;58.22;7.82;;;;;;;;;;4965705;28;20427;-65
2024/03/23 00:45:35;;;;;;;54.63;6.85;;;;;;;;;;4961786;28;20059;-65
2024/03/23 00:48:47;;;;;;;60.15;6.13;;;;;;;;;;4973361;28;20503;-65
2024/03/23 00:51:53;;;;;;;57.83;8.60;;;;;;;;;;4962823;28;20066;-65
2024/03/23 00:54:46;;;;;;;60.55;7.60;;;;;;;;;;4965236;28;20062;-65
2024/03/23 00:57:32;;;;;;;55.80;6.32;;;;;;;;;;4963659;28;20054;-64
2024/03/23 01:00:25;;;;;;;53.92;7.25;;;;;;;;;;4961705;28;20058;-65
2024/03/23 01:03:11;;;;;;;66.68;7.13;;;;;;;;;;4956461;28;20058;-64
2024/03/23 01:06:04;;;;;;;52.58;7.03;;;;;;;;;;4957991;28;20062;-48
2024/03/23 01:08:50;;;;;;;45.80;6.10;;;;;;;;;;4958852;28;20050;-47
2024/03/23 01:11:43;;;;;;;56.83;7.25;;;;;;;;;;4957352;28;20472;-65
2024/03/23 01:14:36;;;;;;;54.45;7.05;;;;;;;;;;4959571;28;20061;-66
2024/03/23 01:17:36;;;;;;;70.45;8.23;;;;;;;;;;4955118;28;20509;-66
2024/03/23 01:20:22;;;;;;;51.10;7.50;;;;;;;;;;4956925;28;20058;-65
2024/03/23 01:23:15;;;;;;;59.42;8.02;;;;;;;;;;4959790;28;20424;-66
2024/03/23 01:26:01;;;;;;;72.55;8.68;;;;;;;;;;4958429;28;20069;-52
2024/03/23 01:28:55;;;;;;;56.47;8.23;;;;;;;;;;4962448;28;20764;-49
2024/03/23 01:31:41;;;;;;;58.80;7.20;;;;;;;;;;4955296;28;20069;-50
2024/03/23 01:34:33;;;;;;;57.90;6.95;;;;;;;;;;4958380;28;20058;-50
2024/03/23 01:37:20;;;;;;;49.45;7.13;;;;;;;;;;4956370;28;20059;-65
2024/03/23 01:40:15;;;;;;;72.93;6.97;;;;;;;;;;4957702;28;20093;-66
2024/03/23 01:43:08;;;;;;;60.22;7.65;;;;;;;;;;4957768;28;20070;-65
2024/03/23 01:46:01;;;;;;;61.40;7.10;;;;;;;;;;4961491;28;20054;-66
2024/03/23 01:48:54;;;;;;;53.35;7.60;;;;;;;;;;4970447;28;20904;-65
2024/03/23 01:51:47;;;;;;;59.05;8.05;;;;;;;;;;4965158;28;20393;-66
2024/03/23 01:54:34;;;;;;;65.05;7.70;;;;;;;;;;4958736;28;20069;-60
2024/03/23 01:57:26;;;;;;;53.67;6.60;;;;;;;;;;4958893;28;20055;-61
2024/03/23 02:00:13;;;;;;;54.55;6.30;;;;;;;;;;4958194;28;20401;-61
2024/03/23 02:03:23;;;;;;;49.38;6.30;;;;;;;;;;4962601;28;20432;-65
2024/03/23 02:06:09;;;;;;;65.88;6.68;;;;;;;;;;4954977;28;20634;-65
2024/03/23 02:09:01;;;;;;;41.75;6.13;;;;;;;;;;4958338;28;20070;-65
2024/03/23 02:11:48;;;;;;;54.58;6.85;;;;;;;;;;4957061;28;20504;-64
2024/03/23 02:14:40;;;;;;;56.33;6.60;;;;;;;;;;4960346;28;20070;-65
2024/03/23 02:17:33;;;;;;;65.40;6.57;;;;;;;;;;4955761;28;20058;-64
2024/03/23 02:20:26;;;;;;;48.70;7.93;;;;;;;;;;4961040;28;20062;-65
2024/03/23 02:23:16;;;;;;;56.65;7.18;;;;;;;;;;4959740;28;20109;-50
2024/03/23 02:26:08;;;;;;;52.78;7.85;;;;;;;;;;4970089;28;20148;-50
2024/03/23 02:28:54;;;;;;;59.70;8.27;;;;;;;;;;4953591;28;20058;-52
2024/03/23 02:31:47;;;;;;;43.08;6.18;;;;;;;;;;4963747;28;20322;-52
2024/03/23 02:34:33;;;;;;;49.92;7.05;;;;;;;;;;4959223;28;20063;-61
2024/03/23 02:37:26;;;;;;;46.22;7.25;;;;;;;;;;4955314;28;20062;-61
2024/03/23 02:40:12;;;;;;;47.22;7.13;;;;;;;;;;4960028;28;20062;-60
2024/03/23 02:43:05;;;;;;;52.70;6.03;;;;;;;;;;4967937;28;20448;-61
2024/03/23 02:45:58;;;;;;;38.85;5.95;;;;;;;;;;4965076;28;20066;-61
2024/03/23 02:48:51;;;;;;;61.60;6.65;;;;;;;;;;4963759;28;20058;-61
2024/03/23 02:52:13;;;;;;;50.90;6.47;;;;;;;;;;4979896;28;20433;-61
2024/03/23 02:55:06;;;;;;;56.97;7.05;;;;;;;;;;4962748;28;20054;-61
2024/03/23 02:57:52;;;;;;;50.70;8.25;;;;;;;;;;4963127;28;20105;-61
2024/03/23 03:00:45;;;;;;;54.00;6.28;;;;;;;;;;4962753;28;20530;-61
2024/03/23 03:03:38;;;;;;;47.95;6.18;;;;;;;;;;4959830;28;20062;-61
2024/03/23 03:06:31;;;;;;;66.30;6.93;;;;;;;;;;4964214;28;20051;-61
2024/03/23 03:09:17;;;;;;;58.08;7.53;;;;;;;;;;4961526;28;20058;-60
2024/03/23 03:12:10;;;;;;;52.92;7.35;;;;;;;;;;4960035;28;20062;-61
2024/03/23 03:14:56;;;;;;;61.33;7.20;;;;;;;;;;4961948;28;20050;-60
2024/03/23 03:17:56;;;;;;;50.08;6.75;;;;;;;;;;4960695;28;20067;-61
2024/03/23 03:20:43;;;;;;;41.90;5.25;;;;;;;;;;4963813;28;20058;-60
2024/03/23 03:23:35;;;;;;;43.15;6.32;;;;;;;;;;4960256;28;20058;-61
2024/03/23 03:26:28;;;;;;;51.22;7.03;;;;;;;;;;4960575;28;20065;-61
2024/03/23 03:29:14;;;;;;;59.00;7.55;;;;;;;;;;4959322;28;20058;-64
2024/03/23 03:32:07;;;;;;;49.05;7.57;;;;;;;;;;4964487;28;20054;-66
2024/03/23 03:34:53;;;;;;;54.75;7.63;;;;;;;;;;4960847;28;20546;-66
2024/03/23 03:37:46;;;;;;;53.35;8.77;;;;;;;;;;4966095;28;20567;-65
2024/03/23 03:40:32;;;;;;;53.15;7.50;;;;;;;;;;4961734;28;20065;-66
2024/03/23 03:43:25;;;;;;;49.67;5.78;;;;;;;;;;4976693;28;20054;-65
2024/03/23 03:46:12;;;;;;;57.03;7.65;;;;;;;;;;4963310;28;20433;-65
2024/03/23 03:49:05;;;;;;;60.22;7.13;;;;;;;;;;4957944;28;20070;-61
2024/03/23 03:51:51;;;;;;;45.50;5.78;;;;;;;;;;4956654;28;20492;-62
2024/03/23 03:54:43;;;;;;;44.53;5.80;;;;;;;;;;4958930;28;20058;-61
2024/03/23 03:57:30;;;;;;;51.42;6.88;;;;;;;;;;4957937;28;20500;-62
2024/03/23 04:00:22;;;;;;;48.83;6.93;;;;;;;;;;4963545;28;20073;-61
2024/03/23 04:03:08;;;;;;;57.47;6.82;;;;;;;;;;4958869;28;20539;-61
2024/03/23 04:06:01;;;;;;;47.67;6.85;;;;;;;;;;4962727;28;20113;-61
2024/03/23 04:08:47;;;;;;;41.80;6.35;;;;;;;;;;4964010;28;20054;-61
2024/03/23 04:11:40;;;;;;;60.10;6.80;;;;;;;;;;4964485;28;20050;-62
2024/03/23 04:14:26;;;;;;;52.50;7.30;;;;;;;;;;4962127;28;20126;-61
2024/03/23 04:17:31;;;;;;;57.35;6.35;;;;;;;;;;4954162;28;20059;-60
2024/03/23 04:20:19;;;;;;;47.20;6.60;;;;;;;;;;4944223;28;20054;-59
2024/03/23 04:23:11;;;;;;;46.63;6.43;;;;;;;;;;4941205;28;20113;-61
2024/03/23 04:26:02;;;;;;;61.95;7.07;;;;;;;;;;4945981;28;20432;-62
2024/03/23 04:28:55;;;;;;;62.20;6.28;;;;;;;;;;4961346;28;20551;-49
2024/03/23 04:31:41;;;;;;;74.60;7.38;;;;;;;;;;4948217;28;20066;-54
2024/03/23 04:34:35;;;;;;;49.72;6.03;;;;;;;;;;4945431;28;20055;-52
2024/03/23 04:37:21;;;;;;;47.70;5.82;;;;;;;;;;4944432;28;20065;-51
2024/03/23 04:40:13;;;;;;;47.50;7.00;;;;;;;;;;4960028;28;20055;-46
2024/03/23 04:43:01;;;;;;;50.65;7.15;;;;;;;;;;4943741;28;20058;-50
2024/03/23 04:45:52;;;;;;;42.70;6.57;;;;;;;;;;4943488;28;20059;-64
2024/03/23 04:48:39;;;;;;;49.10;6.07;;;;;;;;;;4941842;28;20555;-64
2024/03/23 04:51:39;;;;;;;49.00;6.30;;;;;;;;;;4944762;28;20073;-64
2024/03/23 04:54:25;;;;;;;55.30;6.30;;;;;;;;;;4942961;28;20078;-51
2024/03/23 04:57:17;;;;;;;52.25;6.60;;;;;;;;;;4960364;28;20055;-49
2024/03/23 05:00:12;;;;;;;68.40;7.50;;;;;;;;;;4941682;28;20059;-51
2024/03/23 05:02:56;;;;;;;60.50;7.38;;;;;;;;;;4935138;28;20062;-50
2024/03/23 05:05:42;;;;;;;60.08;7.35;;;;;;;;;;4944123;28;20062;-50
2024/03/23 05:08:35;;;;;;;47.85;6.78;;;;;;;;;;4945648;28;21630;-50
2024/03/23 05:11:22;;;;;;;54.90;6.65;;;;;;;;;;4943459;28;20067;-49
2024/03/23 05:14:15;;;;;;;54.45;6.40;;;;;;;;;;4941346;28;20297;-61
2024/03/23 05:17:07;;;;;;;39.15;6.20;;;;;;;;;;4949078;28;20077;-61
2024/03/23 05:20:09;;;;;;;61.20;7.07;;;;;;;;;;4965965;28;20525;-61
2024/03/23 05:22:55;;;;;;;61.65;7.53;;;;;;;;;;4959299;28;20499;-66
2024/03/23 05:25:47;;;;;;;63.13;7.45;;;;;;;;;;4962452;28;20050;-64
2024/03/23 05:28:34;;;;;;;65.55;8.38;;;;;;;;;;4961557;28;20141;-64
2024/03/23 05:31:27;;;;;;;74.22;7.53;;;;;;;;;;4963881;28;20061;-64
2024/03/23 05:34:13;;;;;;;53.03;7.32;;;;;;;;;;4961900;28;20476;-65
2024/03/23 05:37:06;;;;;;;52.88;6.60;;;;;;;;;;4958750;28;20059;-64
2024/03/23 05:39:52;;;;;;;58.70;6.28;;;;;;;;;;4958641;28;20384;-64
2024/03/23 05:42:45;;;;;;;51.58;6.72;;;;;;;;;;4956290;28;20416;-61
2024/03/23 05:45:31;;;;;;;44.97;6.13;;;;;;;;;;4954580;28;20110;-61
2024/03/23 05:48:25;;;;;;;58.30;7.82;;;;;;;;;;4960562;28;20065;-61
2024/03/23 05:51:12;;;;;;;58.03;6.07;;;;;;;;;;4956700;28;20058;-60
2024/03/23 05:54:04;;;;;;;58.35;9.43;;;;;;;;;;4961887;28;20054;-60
2024/03/23 05:56:54;;;;;;;56.50;6.65;;;;;;;;;;4958742;28;20806;-61
2024/03/23 05:59:47;;;;;;;57.58;6.35;;;;;;;;;;4976320;28;20066;-61
2024/03/23 06:02:33;;;;;;;51.35;7.13;;;;;;;;;;4959930;28;20065;-61
2024/03/23 06:05:27;;;;;;;52.45;6.72;;;;;;;;;;4975599;28;20062;-61
2024/03/23 06:08:13;;;;;;;54.92;7.55;;;;;;;;;;4956354;28;20058;-60
2024/03/23 06:11:08;;;;;;;51.28;6.25;;;;;;;;;;4957143;28;20520;-61
2024/03/23 06:13:54;;;;;;;56.30;7.28;;;;;;;;;;4962659;28;20718;-61
2024/03/23 06:16:54;;;;;;;41.88;6.10;;;;;;;;;;4966291;28;20054;-61
2024/03/23 06:19:40;;;;;;;59.85;8.27;;;;;;;;;;4966746;28;20417;-54
2024/03/23 06:22:33;;;;;;;60.20;6.60;;;;;;;;;;4964326;28;20070;-50
2024/03/23 06:25:19;;;;;;;56.33;7.05;;;;;;;;;;4964543;28;20057;-51
2024/03/23 06:28:13;;;;;;;79.13;8.55;;;;;;;;;;4966900;28;20784;-49
2024/03/23 06:30:58;;;;;;;62.13;6.78;;;;;;;;;;4962018;28;20065;-47
2024/03/23 06:33:51;;;;;;;61.35;6.85;;;;;;;;;;4965318;28;20073;-51
2024/03/23 06:36:38;;;;;;;71.22;7.38;;;;;;;;;;4963178;28;20046;-49
2024/03/23 06:39:31;;;;;;;58.55;7.07;;;;;;;;;;4977459;28;20057;-61
2024/03/23 06:42:17;;;;;;;63.55;7.03;;;;;;;;;;4964473;28;20078;-60
2024/03/23 06:45:10;;;;;;;62.10;7.38;;;;;;;;;;4975905;28;20062;-60
2024/03/23 06:47:57;;;;;;;66.05;6.78;;;;;;;;;;4958119;28;20077;-54
2024/03/23 06:50:49;;;;;;;48.17;6.18;;;;;;;;;;4976125;28;20054;-64
2024/03/23 06:53:35;;;;;;;64.47;7.15;;;;;;;;;;4959170;28;20418;-65
2024/03/23 06:56:27;;;;;;;52.50;7.85;;;;;;;;;;4962535;28;20652;-64
2024/03/23 06:59:13;;;;;;;47.78;6.28;;;;;;;;;;4961668;28;20058;-66
2024/03/23 07:02:09;;;;;;;64.82;7.32;;;;;;;;;;4977646;28;20413;-64
2024/03/23 07:04:55;;;;;;;44.85;6.32;;;;;;;;;;4964988;28;20058;-65
2024/03/23 07:08:10;;;;;;;48.67;7.70;;;;;;;;;;4981552;28;20057;-64
2024/03/23 07:10:57;;;;;;;53.85;6.75;;;;;;;;;;4966897;28;20069;-64
2024/03/23 07:13:56;;;;;;;55.33;6.50;;;;;;;;;;4971990;28;20062;-64
2024/03/23 07:16:49;;;;;;;37.13;5.97;;;;;;;;;;4961184;28;20062;-61
2024/03/23 07:19:48;;;;;;;48.95;6.45;;;;;;;;;;4961384;28;20058;-61
2024/03/23 07:22:34;;;;;;;42.75;6.45;;;;;;;;;;4956550;28;20129;-60
2024/03/23 07:25:29;;;;;;;59.10;7.47;;;;;;;;;;4957216;28;20109;-61
2024/03/23 07:28:14;;;;;;;46.38;5.63;;;;;;;;;;4956089;28;20066;-61
2024/03/23 07:31:14;;;;;;;48.10;7.03;;;;;;;;;;4955554;28;20058;-61
2024/03/23 07:34:00;;;;;;;37.78;5.88;;;;;;;;;;4959850;28;20069;-60
2024/03/23 07:36:52;;;;;;;41.60;5.88;;;;;;;;;;4957724;28;20059;-61
2024/03/23 07:39:39;;;;;;;46.80;5.63;;;;;;;;;;4959257;28;20054;-61
2024/03/23 07:42:32;;;;;;;52.90;6.50;;;;;;;;;;4959942;28;20077;-61
2024/03/23 07:45:19;;;;;;;48.40;6.22;;;;;;;;;;4957444;28;20070;-65
2024/03/23 07:48:12;;;;;;;53.53;6.85;;;;;;;;;;4961905;28;20069;-61
2024/03/23 07:51:02;;;;;;;37.25;6.05;;;;;;;;;;4959891;28;20054;-61
2024/03/23 07:53:54;;;;;;;45.35;5.70;;;;;;;;;;4958618;28;20059;-61
2024/03/23 07:56:48;;;;;;;35.35;5.07;;;;;;;;;;4954842;28;20059;-61
2024/03/23 07:59:34;;;;;;;41.33;6.32;;;;;;;;;;4956231;28;21206;-60
2024/03/23 08:02:26;;;;;;;37.17;5.22;;;;;;;;;;4958898;28;20062;-60
2024/03/23 08:05:13;;;;;;;38.83;5.15;;;;;;;;;;4962105;28;20054;-61
2024/03/23 08:08:05;;;;;;;34.78;4.90;;;;;;;;;;4957921;28;20055;-61
2024/03/23 08:10:59;;;;;;;39.75;4.63;;;;;;;;;;4964492;28;20063;-61
2024/03/23 08:13:51;;;;;;;34.22;5.30;;;;;;;;;;4956040;28;20120;-46
2024/03/23 08:16:51;;;;;;;46.63;6.57;;;;;;;;;;4956531;28;20057;-50
2024/03/23 08:19:52;;;;;;;28.52;5.00;;;;;;;;;;4954424;28;20051;-51
2024/03/23 08:22:37;;;;;;;31.85;4.00;;;;;;;;;;4961658;28;20401;-52
2024/03/23 08:25:33;;;;;;;29.15;4.32;;;;;;;;;;4959097;28;20057;-50
2024/03/23 08:28:20;;;;;;;28.10;4.35;;;;;;;;;;4954408;28;20077;-48
2024/03/23 08:31:14;;;;;;;40.35;5.85;;;;;;;;;;4953115;28;20062;-63
2024/03/23 08:33:59;;;;;;;38.63;4.90;;;;;;;;;;4957782;28;20062;-63
2024/03/23 08:36:51;;;;;;;32.58;5.05;;;;;;;;;;4963202;28;20480;-63
2024/03/23 08:39:37;;;;;;;30.80;4.85;;;;;;;;;;4960253;28;20059;-63
2024/03/23 08:42:31;;;;;;;34.92;5.10;;;;;;;;;;4960374;28;20504;-48
2024/03/23 08:45:17;;;;;;;30.98;5.47;;;;;;;;;;4959394;28;20112;-63
2024/03/23 08:48:09;;;;;;;40.80;6.13;;;;;;;;;;4958535;28;20081;-64
2024/03/23 08:51:05;;;;;;;39.13;5.55;;;;;;;;;;4956755;28;20555;-63
2024/03/23 08:53:58;;;;;;;31.52;5.55;;;;;;;;;;4957074;28;20532;-63
2024/03/23 08:56:44;;;;;;;34.78;6.28;;;;;;;;;;4958354;28;20208;-63
2024/03/23 08:59:38;;;;;;;35.17;5.38;;;;;;;;;;4957453;28;20595;-60
2024/03/23 09:02:24;;;;;;;45.10;5.70;;;;;;;;;;4961877;28;20050;-60
2024/03/23 09:05:17;;;;;;;38.15;5.43;;;;;;;;;;4963534;28;20054;-60
2024/03/23 09:08:04;;;;;;;30.73;5.78;;;;;;;;;;4956887;28;20101;-60
2024/03/23 09:10:56;;;;;;;40.22;5.53;;;;;;;;;;4963388;28;20066;-62
2024/03/23 09:13:43;;;;;;;33.40;5.20;;;;;;;;;;4959995;28;20070;-63
2024/03/23 09:16:35;;;;;;;43.67;6.55;;;;;;;;;;4959070;28;20066;-64
2024/03/23 09:19:28;;;;;;;44.95;5.13;;;;;;;;;;4942048;28;20070;-64
2024/03/23 09:22:21;;;;;;;40.03;5.40;;;;;;;;;;4937317;28;20500;-64
2024/03/23 09:25:08;;;;;;;41.95;5.60;;;;;;;;;;4942969;28;20058;-64
2024/03/23 09:28:00;;;;;;;36.15;5.75;;;;;;;;;;4937287;28;20070;-59
2024/03/23 09:30:47;;;;;;;37.55;5.30;;;;;;;;;;4942423;28;20074;-60
2024/03/23 09:33:40;;;;;;;41.55;5.00;;;;;;;;;;4957406;28;20066;-59
2024/03/23 09:36:26;;;;;;;40.38;6.07;;;;;;;;;;4942413;28;20062;-60
2024/03/23 09:39:19;;;;;;;30.73;5.10;;;;;;;;;;4945363;28;20059;-61
2024/03/23 09:42:06;;;;;;;30.45;4.72;;;;;;;;;;4942304;28;20051;-64
2024/03/23 09:45:00;;;;;;;29.67;4.60;;;;;;;;;;4956131;28;20058;-64
2024/03/23 09:47:46;;;;;;;32.05;5.03;;;;;;;;;;4942507;28;20448;-65
2024/03/23 09:50:39;;;;;;;35.53;5.05;;;;;;;;;;4944112;28;20505;-64
2024/03/23 09:53:25;;;;;;;34.80;5.63;;;;;;;;;;4940586;28;20059;-64
2024/03/23 09:56:18;;;;;;;34.75;5.60;;;;;;;;;;4956565;28;20568;-64
2024/03/23 09:59:04;;;;;;;26.50;4.75;;;;;;;;;;4943187;28;20259;-63
2024/03/23 10:01:57;;;;;;;36.75;5.20;;;;;;;;;;4953343;28;20077;-63
2024/03/23 10:04:44;;;;;;;24.02;4.75;;;;;;;;;;4937147;28;20059;-63
2024/03/23 10:07:35;;;;;;;34.90;5.88;;;;;;;;;;4937334;28;20580;-49
2024/03/23 10:10:22;;;;;;;31.17;5.35;;;;;;;;;;4942728;28;20069;-60
2024/03/23 10:13:24;;;;;;;31.38;4.63;;;;;;;;;;4952414;28;20050;-61
2024/03/23 10:16:21;;;;;;;33.53;4.78;;;;;;;;;;4939186;28;20429;-60
2024/03/23 10:19:14;;;;;;;32.53;4.65;;;;;;;;;;4955837;28;20478;-61
2024/03/23 10:22:07;;;;;;;44.25;5.70;;;;;;;;;;4957689;28;20078;-61
2024/03/23 10:25:00;;;;;;;33.67;6.13;;;;;;;;;;4961478;28;20499;-60
2024/03/23 10:28:00;;;;;;;33.58;5.75;;;;;;;;;;4959990;28;20069;-60
2024/03/23 10:30:51;;;;;;;23.02;4.20;;;;;;;;;;4957919;28;20067;-61
2024/03/23 10:33:44;;;;;;;36.28;5.40;;;;;;;;;;4957508;28;20428;-61
2024/03/23 10:36:40;;;;;;;39.28;6.50;;;;;;;;;;4960818;28;20061;-47
2024/03/23 10:39:25;;;;;;;35.05;5.03;;;;;;;;;;4958446;28;20062;-63
2024/03/23 10:42:19;;;;;;;32.10;4.90;;;;;;;;;;4958408;28;20051;-63
2024/03/23 10:45:05;;;;;;;33.40;5.80;;;;;;;;;;4961170;28;20050;-63
2024/03/23 10:47:58;;;;;;;28.63;3.72;;;;;;;;;;4963364;28;20070;-63
2024/03/23 10:50:44;;;;;;;27.85;4.78;;;;;;;;;;4960751;28;20062;-62
2024/03/23 10:53:37;;;;;;;29.88;4.95;;;;;;;;;;4960407;28;20054;-61
2024/03/23 10:56:23;;;;;;;19.17;4.15;;;;;;;;;;4961290;28;20051;-61
2024/03/23 10:59:16;;;;;;;23.52;4.55;;;;;;;;;;4963008;28;20054;-61
2024/03/23 11:02:03;;;;;;;23.92;4.88;;;;;;;;;;4960860;28;20069;-60
2024/03/23 11:04:55;;;;;;;31.55;4.38;;;;;;;;;;4960883;28;20523;-65
2024/03/23 11:07:50;;;;;;;27.65;4.63;;;;;;;;;;4961197;28;20069;-62
2024/03/23 11:10:44;;;;;;;30.35;4.15;;;;;;;;;;4963197;28;20058;-62
2024/03/23 11:13:29;;;;;;;23.45;4.70;;;;;;;;;;4959493;28;20055;-62
2024/03/23 11:16:35;;;;;;;26.02;4.82;;;;;;;;;;4964331;28;20550;-62
2024/03/23 11:19:43;;;;;;;19.40;4.20;;;;;;;;;;4958601;28;20046;-62
2024/03/23 11:22:46;;;;;;;26.02;4.63;;;;;;;;;;4959070;28;20058;-64
2024/03/23 11:25:33;;;;;;;35.55;4.22;;;;;;;;;;4960963;28;20055;-64
2024/03/23 11:28:27;;;;;;;26.75;4.68;;;;;;;;;;4957440;28;20050;-64
2024/03/23 11:31:20;;;;;;;25.85;4.50;;;;;;;;;;4965633;28;20062;-64
2024/03/23 11:34:06;;;;;;;25.60;3.88;;;;;;;;;;4963605;28;20050;-63
2024/03/23 11:37:06;;;;;;;29.05;5.50;;;;;;;;;;4961601;28;20121;-63
2024/03/23 11:39:51;;;;;;;31.95;4.43;;;;;;;;;;4961282;28;20066;-63
2024/03/23 11:42:44;;;;;;;27.42;4.43;;;;;;;;;;4959180;28;20541;-63
2024/03/23 11:45:35;;;;;;;20.73;3.78;;;;;;;;;;4964842;28;20054;-63
2024/03/23 11:48:27;;;;;;;24.55;4.55;;;;;;;;;;4961191;28;20062;-63
2024/03/23 11:51:13;;;;;;;23.10;4.53;;;;;;;;;;4961814;28;20069;-51
2024/03/23 11:54:09;;;;;;;29.25;4.13;;;;;;;;;;4962169;28;20062;-53
2024/03/23 11:56:56;;;;;;;21.95;4.60;;;;;;;;;;4962963;28;20543;-53
2024/03/23 11:59:48;;;;;;;19.17;4.68;;;;;;;;;;4960348;28;20517;-54
2024/03/23 12:02:41;;;;;;;23.83;3.67;;;;;;;;;;4960753;28;20059;-61
2024/03/23 12:05:28;;;;;;;27.50;4.28;;;;;;;;;;4960146;28;20532;-54
2024/03/23 12:08:22;;;;;;;15.15;3.60;;;;;;;;;;4958248;28;20062;-51
2024/03/23 12:11:15;;;;;;;21.15;3.13;;;;;;;;;;4957025;28;20054;-48
2024/03/23 12:14:08;;;;;;;23.30;3.38;;;;;;;;;;4963381;28;20061;-52
2024/03/23 12:16:54;;;;;;;21.35;3.40;;;;;;;;;;4959340;28;20065;-47
2024/03/23 12:19:54;;;;;;;23.40;3.72;;;;;;;;;;4941008;28;20059;-63
2024/03/23 12:22:47;;;;;;;23.30;4.00;;;;;;;;;;4939975;28;20046;-64
2024/03/23 12:25:40;;;;;;;25.40;4.15;;;;;;;;;;4956094;28;20055;-65
2024/03/23 12:28:26;;;;;;;18.88;3.83;;;;;;;;;;4941434;28;20058;-64
2024/03/23 12:31:19;;;;;;;22.10;3.75;;;;;;;;;;4956156;28;20062;-61
2024/03/23 12:34:05;;;;;;;16.75;3.63;;;;;;;;;;4937815;28;20070;-61
2024/03/23 12:36:58;;;;;;;17.17;3.78;;;;;;;;;;4938411;28;20070;-61
2024/03/23 12:39:44;;;;;;;25.23;4.60;;;;;;;;;;4939524;28;20051;-61
2024/03/23 12:42:37;;;;;;;21.58;3.95;;;;;;;;;;4941852;28;20066;-64
2024/03/23 12:45:23;;;;;;;19.90;3.50;;;;;;;;;;4944145;28;20497;-60
2024/03/23 12:48:16;;;;;;;24.25;3.90;;;;;;;;;;4944384;28;20069;-62
2024/03/23 12:51:08;;;;;;;19.67;3.67;;;;;;;;;;4951450;28;20074;-61
2024/03/23 12:54:02;;;;;;;23.15;4.38;;;;;;;;;;4957816;28;20583;-62
2024/03/23 12:56:48;;;;;;;20.35;3.78;;;;;;;;;;4944336;28;20065;-62
2024/03/23 12:59:40;;;;;;;21.15;4.13;;;;;;;;;;4941196;28;20084;-64
2024/03/23 13:02:27;;;;;;;24.85;4.60;;;;;;;;;;4941079;28;20071;-59
2024/03/23 13:05:20;;;;;;;20.52;4.07;;;;;;;;;;4955692;28;20062;-60
2024/03/23 13:08:06;;;;;;;22.45;3.85;;;;;;;;;;4941266;28;20070;-59
2024/03/23 13:10:59;;;;;;;14.43;3.35;;;;;;;;;;4942545;28;20075;-59
2024/03/23 13:13:45;;;;;;;28.38;4.18;;;;;;;;;;4940790;28;20061;-59
2024/03/23 13:16:37;;;;;;;26.73;3.65;;;;;;;;;;4939497;28;20509;-61
2024/03/23 13:19:31;;;;;;;21.13;3.25;;;;;;;;;;4953153;28;20120;-60
2024/03/23 13:22:24;;;;;;;21.65;3.65;;;;;;;;;;4961044;28;20067;-61
2024/03/23 13:25:10;;;;;;;13.85;3.08;;;;;;;;;;4955444;28;20073;-60
2024/03/23 13:28:03;;;;;;;11.32;2.33;;;;;;;;;;4957461;28;20475;-61
2024/03/23 13:31:03;;;;;;;20.40;3.10;;;;;;;;;;4970719;28;20062;-65
2024/03/23 13:33:56;;;;;;;8.60;1.92;;;;;;;;;;4953788;28;20769;-63
2024/03/23 13:36:43;;;;;;;8.60;1.50;;;;;;;;;;4956844;28;20583;-63
2024/03/23 13:39:35;;;;;;;7.15;1.85;;;;;;;;;;4961171;28;20496;-64
2024/03/23 13:42:25;;;;;;;13.32;2.17;;;;;;;;;;4958461;28;20132;-64
2024/03/23 13:45:15;;;;;;;10.32;2.33;;;;;;;;;;4963651;28;20265;-64
2024/03/23 13:48:01;;;;;;;9.43;2.50;;;;;;;;;;4959727;28;20490;-64
2024/03/23 13:51:03;;;;;;;10.40;1.92;;;;;;;;;;4974000;28;20058;-64
2024/03/23 13:53:57;;;;;;;10.25;2.53;;;;;;;;;;4961809;28;20061;-49
2024/03/23 13:56:44;;;;;;;15.45;2.35;;;;;;;;;;4956015;28;20085;-49
2024/03/23 13:59:36;;;;;;;15.35;2.85;;;;;;;;;;4960039;28;20066;-48
2024/03/23 14:02:22;;;;;;;13.50;2.67;;;;;;;;;;4955848;28;20066;-49
2024/03/23 14:05:14;;;;;;;12.75;2.58;;;;;;;;;;4954738;28;20089;-49
2024/03/23 14:08:01;;;;;;;11.48;2.50;;;;;;;;;;4957689;28;20062;-51
2024/03/23 14:10:53;;;;;;;15.73;2.80;;;;;;;;;;4958033;28;20517;-51
2024/03/23 14:13:46;;;;;;;13.65;2.97;;;;;;;;;;4957266;28;20066;-66
2024/03/23 14:16:39;;;;;;;16.02;2.85;;;;;;;;;;4958175;28;20051;-64
2024/03/23 14:19:33;;;;;;;19.30;3.72;;;;;;;;;;4958869;28;20050;-63
2024/03/23 14:22:26;;;;;;;21.77;4.10;;;;;;;;;;4960766;28;20058;-61
2024/03/23 14:25:11;;;;;;;16.08;3.10;;;;;;;;;;4957965;28;20062;-62
2024/03/23 14:28:04;;;;;;;20.65;4.00;;;;;;;;;;4954990;28;20062;-63
2024/03/23 14:30:56;;;;;;;18.90;3.47;;;;;;;;;;4953471;28;20472;-64
2024/03/23 14:33:50;;;;;;;17.85;3.38;;;;;;;;;;4959106;28;20058;-64
2024/03/23 14:36:36;;;;;;;23.13;3.97;;;;;;;;;;4962760;28;20058;-64
2024/03/23 14:39:30;;;;;;;17.02;3.05;;;;;;;;;;4961531;28;20055;-64
2024/03/23 14:42:15;;;;;;;16.08;3.65;;;;;;;;;;4965196;28;20463;-62
2024/03/23 14:45:08;;;;;;;19.35;3.75;;;;;;;;;;4964883;28;20066;-62
2024/03/23 14:48:01;;;;;;;21.65;3.67;;;;;;;;;;4964529;28;20065;-63
2024/03/23 14:50:47;;;;;;;19.15;3.70;;;;;;;;;;4957806;28;20112;-64
2024/03/23 14:53:40;;;;;;;17.45;3.47;;;;;;;;;;4959916;28;20054;-60
2024/03/23 14:56:26;;;;;;;21.38;4.10;;;;;;;;;;4963457;28;20063;-60
2024/03/23 14:59:19;;;;;;;21.92;3.63;;;;;;;;;;4965171;28;20058;-60
2024/03/23 15:02:05;;;;;;;18.77;3.70;;;;;;;;;;4958678;28;20062;-60
2024/03/23 15:04:58;;;;;;;22.45;4.22;;;;;;;;;;4958134;28;20066;-60
2024/03/23 15:07:44;;;;;;;28.80;4.13;;;;;;;;;;4956846;28;20539;-60
2024/03/23 15:10:39;;;;;;;25.05;4.10;;;;;;;;;;4963860;28;20069;-63
2024/03/23 15:13:24;;;;;;;21.25;4.03;;;;;;;;;;4963194;28;24184;-62
2024/03/23 15:16:20;;;;;;;26.60;3.85;;;;;;;;;;4955243;28;20074;-64
2024/03/23 15:19:09;;;;;;;23.38;4.07;;;;;;;;;;4956335;28;20061;-64
2024/03/23 15:22:03;;;;;;;22.73;3.65;;;;;;;;;;4973378;28;20642;-61
2024/03/23 15:24:49;;;;;;;19.75;3.20;;;;;;;;;;4961351;28;20055;-59
2024/03/23 15:27:41;;;;;;;18.50;3.42;;;;;;;;;;4964343;28;20066;-60
2024/03/23 15:30:28;;;;;;;15.57;2.85;;;;;;;;;;4956976;28;20086;-59
2024/03/23 15:33:20;;;;;;;12.23;2.65;;;;;;;;;;4962509;28;20093;-59
2024/03/23 15:36:07;;;;;;;16.23;2.60;;;;;;;;;;4962132;28;20066;-59
2024/03/23 15:38:59;;;;;;;12.40;2.80;;;;;;;;;;4975206;28;20066;-60
2024/03/23 15:41:46;;;;;;;12.75;2.92;;;;;;;;;;4960839;28;20420;-59
2024/03/23 15:44:39;;;;;;;16.30;2.58;;;;;;;;;;4960315;28;20069;-59
2024/03/23 15:47:25;;;;;;;19.25;3.17;;;;;;;;;;4962015;28;20050;-59
2024/03/23 15:50:18;;;;;;;14.10;2.85;;;;;;;;;;4957108;28;20428;-63
2024/03/23 15:53:04;;;;;;;14.65;2.85;;;;;;;;;;4957811;28;21607;-49
2024/03/23 15:56:03;;;;;;;10.27;2.25;;;;;;;;;;4958090;28;20424;-47
2024/03/23 15:58:55;;;;;;;6.65;2.00;;;;;;;;;;4961501;28;20063;-48
2024/03/23 16:01:48;;;;;;;11.60;2.15;;;;;;;;;;4958327;28;20058;-48
2024/03/23 16:04:41;;;;;;;9.25;2.85;;;;;;;;;;4974589;28;20066;-47
2024/03/23 16:07:28;;;;;;;6.68;1.38;;;;;;;;;;4959397;28;20508;-48
2024/03/23 16:10:20;;;;;;;8.70;2.10;;;;;;;;;;4953742;28;20266;-49
2024/03/23 16:13:07;;;;;;;7.30;1.35;;;;;;;;;;4957162;28;20109;-47
2024/03/23 16:16:03;;;;;;;13.43;2.10;;;;;;;;;;4959102;28;20067;-49
2024/03/23 16:18:53;;;;;;;10.43;1.67;;;;;;;;;;4958750;28;20063;-64
2024/03/23 16:21:45;;;;;;;7.65;2.08;;;;;;;;;;4959008;28;20054;-51
2024/03/23 16:24:32;;;;;;;9.73;2.50;;;;;;;;;;4960242;28;20058;-53
2024/03/23 16:27:24;;;;;;;7.45;1.77;;;;;;;;;;4963292;28;20054;-53
2024/03/23 16:30:11;;;;;;;12.82;2.35;;;;;;;;;;4958388;28;20468;-52
2024/03/23 16:33:03;;;;;;;8.65;1.65;;;;;;;;;;4957891;28;20054;-49
2024/03/23 16:36:19;;;;;;;8.32;1.80;;;;;;;;;;4960119;28;20062;-59
2024/03/23 16:39:11;;;;;;;8.80;2.00;;;;;;;;;;4957759;28;20417;-60
2024/03/23 16:41:58;;;;;;;12.80;2.10;;;;;;;;;;4956849;28;20071;-60
2024/03/23 16:44:51;;;;;;;12.73;2.10;;;;;;;;;;4956912;28;20061;-59
2024/03/23 16:47:40;;;;;;;9.50;2.42;;;;;;;;;;4960191;28;20055;-61
2024/03/23 16:50:30;;;;;;;10.77;2.30;;;;;;;;;;4975065;28;20066;-60
2024/03/23 16:53:16;;;;;;;10.70;2.53;;;;;;;;;;4960520;28;20058;-60
2024/03/23 16:56:10;;;;;;;11.48;2.38;;;;;;;;;;4955963;28;20620;-60